Time;durP1;ratioP1;P1;durP2;ratioP2;P2;SDS_P1;SDS_P2;PMS_P1;PMS_P2;Temp;Humidity;BMP_temperature;BMP_pressure;BME280_temperature;BME280_humidity;BME280_pressure;Samples;Min_cycle;Max_cycle;Signal;HPM_P1;HPM_P2
2021/04/27 00:02:19;;;;;;;9.23;6.70;;;;;;;4.51;55.43;100060.66;5096913;28;20409;-74
2021/04/27 00:04:46;;;;;;;10.48;6.68;;;;;;;4.47;55.47;100060.41;5096815;28;20059;-74
2021/04/27 00:07:13;;;;;;;8.80;7.00;;;;;;;4.41;56.01;100060.69;5096967;28;20044;-74
2021/04/27 00:09:41;;;;;;;10.55;6.03;;;;;;;4.39;56.24;100058.25;5096992;28;20048;-74
2021/04/27 00:12:09;;;;;;;9.25;6.47;;;;;;;4.38;56.82;100053.81;5096511;28;20055;-74
2021/04/27 00:14:37;;;;;;;8.70;6.28;;;;;;;4.38;56.72;100053.81;5096343;28;20052;-74
2021/04/27 00:17:04;;;;;;;8.63;6.22;;;;;;;4.38;56.72;100045.56;5096756;28;20069;-74
2021/04/27 00:19:31;;;;;;;9.10;6.68;;;;;;;4.36;57.41;100053.28;5096845;28;20052;-74
2021/04/27 00:22:03;;;;;;;9.80;6.03;;;;;;;4.36;57.43;100052.47;5096544;28;20048;-74
2021/04/27 00:24:31;;;;;;;9.45;6.22;;;;;;;4.35;57.20;100048.88;5109747;28;20055;-74
2021/04/27 00:27:00;;;;;;;10.75;6.03;;;;;;;4.35;56.50;100040.63;5116925;28;20511;-74
2021/04/27 00:29:28;;;;;;;8.95;7.03;;;;;;;4.33;55.90;100048.34;5116748;27;20502;-74
2021/04/27 00:31:55;;;;;;;9.75;6.53;;;;;;;4.33;55.75;100042.84;5116873;27;20055;-74
2021/04/27 00:34:22;;;;;;;9.20;6.05;;;;;;;4.30;55.31;100037.06;5117132;28;20059;-74
2021/04/27 00:36:49;;;;;;;10.00;6.20;;;;;;;4.25;56.21;100024.13;5116310;28;20051;-74
2021/04/27 00:39:17;;;;;;;10.82;6.32;;;;;;;4.23;56.02;100031.84;5106465;28;20059;-75
2021/04/27 00:41:44;;;;;;;9.75;6.65;;;;;;;4.20;55.41;100033.25;5095913;28;20504;-74
2021/04/27 00:44:12;;;;;;;9.02;6.07;;;;;;;4.17;56.35;100033.81;5095783;28;20056;-74
2021/04/27 00:46:41;;;;;;;12.40;6.70;;;;;;;4.13;56.39;100032.72;5096308;28;20048;-74
2021/04/27 00:49:08;;;;;;;8.27;6.17;;;;;;;4.10;56.51;100040.75;5095816;28;20048;-74
2021/04/27 00:51:35;;;;;;;10.93;6.63;;;;;;;4.06;56.84;100027.50;5096956;28;20067;-74
2021/04/27 00:54:04;;;;;;;9.27;6.30;;;;;;;4.01;56.95;100034.97;5095779;28;20052;-74
2021/04/27 00:56:34;;;;;;;8.25;6.22;;;;;;;4.00;56.97;100036.09;5095651;28;20051;-74
2021/04/27 00:59:01;;;;;;;;;;;;;;;3.93;56.74;100041.91;5096290;28;20048;-74
2021/04/27 01:01:30;;;;;;;8.75;6.47;;;;;;;3.88;56.74;100030.88;5095835;28;19931;-74
2021/04/27 01:03:57;;;;;;;9.40;6.00;;;;;;;3.84;56.29;100018.78;5094076;28;20504;-73
2021/04/27 01:06:24;;;;;;;9.07;6.38;;;;;;;3.81;57.11;100030.38;5115802;28;20404;-73
2021/04/27 01:08:59;;;;;;;10.82;6.07;;;;;;;3.76;57.00;100025.69;5115867;28;20483;-73
2021/04/27 01:11:40;;;;;;;9.38;6.30;;;;;;;3.69;57.27;100029.84;5115963;27;20408;-73
2021/04/27 01:14:11;;;;;;;12.02;6.45;;;;;;;3.66;57.84;100034.00;5115906;28;20078;-74
2021/04/27 01:16:43;;;;;;;10.20;6.60;;;;;;;3.65;57.59;100033.19;5115920;28;20055;-74
2021/04/27 01:19:24;;;;;;;9.07;6.18;;;;;;;3.64;57.83;100027.94;5114223;28;20051;-74
2021/04/27 01:21:54;;;;;;;8.02;6.28;;;;;;;3.60;57.67;100030.41;5115559;28;20056;-74
2021/04/27 01:24:26;;;;;;;10.88;6.88;;;;;;;3.57;57.62;100028.22;5105787;27;20052;-74
2021/04/27 01:26:58;;;;;;;8.65;5.97;;;;;;;3.55;57.69;100019.44;5095961;28;20063;-74
2021/04/27 01:29:28;;;;;;;10.45;6.75;;;;;;;3.53;57.61;100016.13;5095133;28;20495;-74
2021/04/27 01:31:58;;;;;;;14.07;7.00;;;;;;;3.48;58.14;100021.63;5095024;28;20056;-74
2021/04/27 01:34:27;;;;;;;10.60;6.97;;;;;;;3.45;57.58;100016.69;5095092;28;20051;-74
2021/04/27 01:36:55;;;;;;;9.70;7.50;;;;;;;3.40;58.00;100014.78;5094801;28;20051;-74
2021/04/27 01:39:27;;;;;;;9.88;6.72;;;;;;;3.38;58.30;100011.47;5095509;28;20052;-74
2021/04/27 01:45:53;;;;;;;10.73;7.00;;;;;;;3.31;58.20;100001.84;5115344;28;20038;-74
2021/04/27 01:48:21;;;;;;;9.93;6.53;;;;;;;3.23;58.30;100001.31;5078307;28;20054;-74
2021/04/27 01:50:48;;;;;;;9.18;6.45;;;;;;;3.21;59.19;99998.00;5105116;28;20068;-74
2021/04/27 01:53:17;;;;;;;8.38;5.80;;;;;;;3.20;58.73;99996.34;5094331;28;20056;-74
2021/04/27 01:55:44;;;;;;;9.35;6.63;;;;;;;3.19;58.47;99989.22;5094397;28;20052;-74
2021/04/27 01:58:12;;;;;;;11.00;7.05;;;;;;;3.17;58.77;99993.31;5094117;28;20173;-74
2021/04/27 02:00:41;;;;;;;10.55;6.20;;;;;;;3.14;58.21;99983.69;5094790;28;20051;-74
2021/04/27 02:03:10;;;;;;;10.70;6.50;;;;;;;3.13;58.23;99981.22;5094270;28;20063;-74
2021/04/27 02:05:38;;;;;;;9.00;6.07;;;;;;;3.09;58.49;99980.97;5094560;28;20060;-74
2021/04/27 02:08:05;;;;;;;8.25;6.47;;;;;;;3.04;58.56;99978.19;5093733;28;20052;-73
2021/04/27 02:10:32;;;;;;;10.20;6.30;;;;;;;3.03;58.55;99977.38;5094063;28;20055;-74
2021/04/27 02:13:05;;;;;;;9.00;6.00;;;;;;;3.01;58.91;99979.59;5094039;28;20068;-74
2021/04/27 02:15:32;;;;;;;11.70;6.43;;;;;;;3.00;58.41;99972.44;5101781;28;20451;-74
2021/04/27 02:18:04;;;;;;;9.38;6.22;;;;;;;2.98;58.93;99971.91;5114490;28;20408;-74
2021/04/27 02:20:31;;;;;;;7.70;5.45;;;;;;;2.96;59.02;99970.50;5114655;27;20060;-74
2021/04/27 02:23:02;;;;;;;8.60;6.28;;;;;;;2.92;59.32;99967.50;5114563;28;20063;-74
2021/04/27 02:25:29;;;;;;;8.65;6.20;;;;;;;2.92;59.49;99972.16;5095521;28;20060;-74
2021/04/27 02:27:57;;;;;;;11.50;6.60;;;;;;;2.90;59.99;99974.34;5093907;28;20056;-74
2021/04/27 02:30:26;;;;;;;8.95;6.60;;;;;;;2.90;59.66;99971.59;5094820;28;20059;-73
2021/04/27 02:32:56;;;;;;;9.80;5.93;;;;;;;2.91;59.74;99974.09;5094006;28;20147;-73
2021/04/27 02:35:23;;;;;;;7.38;5.78;;;;;;;2.87;59.31;99961.97;5094513;28;20048;-73
2021/04/27 02:37:55;;;;;;;7.72;6.05;;;;;;;2.87;59.70;99967.47;5094475;28;20060;-73
2021/04/27 02:40:25;;;;;;;9.35;6.40;;;;;;;2.85;58.97;99970.50;5089971;28;20056;-73
2021/04/27 02:42:53;;;;;;;9.43;6.25;;;;;;;2.82;59.48;99962.00;5073444;28;20067;-73
2021/04/27 02:45:30;;;;;;;8.02;5.25;;;;;;;2.82;59.22;99968.31;5073603;28;20052;-73
2021/04/27 02:48:05;;;;;;;7.72;5.88;;;;;;;2.80;59.23;99964.19;5073712;28;20409;-73
2021/04/27 02:50:32;;;;;;;9.60;5.68;;;;;;;2.76;59.91;99968.59;5073490;28;20052;-73
2021/04/27 02:52:59;;;;;;;9.27;5.75;;;;;;;2.74;59.66;99963.38;5073395;28;20064;-73
2021/04/27 02:55:27;;;;;;;7.07;5.70;;;;;;;2.73;60.11;99966.38;5077743;28;20052;-74
2021/04/27 02:57:56;;;;;;;8.32;5.65;;;;;;;2.70;60.48;99969.69;5093743;28;20480;-74
2021/04/27 03:00:23;;;;;;;7.15;5.03;;;;;;;2.70;60.23;99954.00;5094282;28;20052;-74
2021/04/27 03:02:50;;;;;;;7.68;5.40;;;;;;;2.67;60.23;99960.06;5094003;28;20327;-74
2021/04/27 03:05:17;;;;;;;8.65;5.28;;;;;;;2.68;59.97;99967.22;5093596;28;20413;-74
2021/04/27 03:07:44;;;;;;;7.18;5.43;;;;;;;2.67;60.51;99961.97;5093809;28;20056;-74
2021/04/27 03:10:11;;;;;;;7.88;5.57;;;;;;;2.64;60.44;99957.88;5094398;28;20044;-74
2021/04/27 03:12:39;;;;;;;8.70;6.05;;;;;;;2.63;60.61;99958.97;5093562;28;20067;-74
2021/04/27 03:15:08;;;;;;;8.15;5.60;;;;;;;2.64;60.31;99966.09;5093432;28;20056;-73
2021/04/27 03:17:35;;;;;;;9.13;5.07;;;;;;;2.62;59.81;99960.06;5093951;28;20051;-73
2021/04/27 03:20:02;;;;;;;8.57;5.93;;;;;;;2.58;60.76;99956.22;5093981;28;20059;-73
2021/04/27 03:22:29;;;;;;;8.85;6.28;;;;;;;2.54;60.19;99946.84;5094877;28;20055;-73
2021/04/27 03:24:56;;;;;;;8.07;4.88;;;;;;;2.49;60.19;99953.19;5107584;28;20060;-73
2021/04/27 03:27:22;;;;;;;8.38;5.30;;;;;;;2.45;59.80;99949.31;5113228;28;20055;-73
2021/04/27 03:29:50;;;;;;;7.05;4.63;;;;;;;2.46;60.01;99948.25;5113599;27;20488;-73
2021/04/27 03:32:17;;;;;;;7.50;5.07;;;;;;;2.46;60.31;99953.75;5113872;28;20044;-73
2021/04/27 03:34:44;;;;;;;9.70;5.38;;;;;;;2.42;60.25;99956.19;5114006;27;20055;-73
2021/04/27 03:37:11;;;;;;;8.30;5.47;;;;;;;2.41;60.35;99954.53;5113426;28;20048;-73
2021/04/27 03:39:41;;;;;;;6.53;4.82;;;;;;;2.41;60.61;99948.22;5098711;28;20052;-74
2021/04/27 03:42:08;;;;;;;9.05;4.78;;;;;;;2.37;60.33;99947.97;5093200;28;20048;-74
2021/04/27 03:44:35;;;;;;;7.53;4.60;;;;;;;2.39;60.06;99940.28;5093022;28;20048;-74
2021/04/27 03:47:03;;;;;;;6.07;4.88;;;;;;;2.38;60.38;99944.09;5093207;28;20052;-73
2021/04/27 03:49:30;;;;;;;6.70;4.75;;;;;;;2.39;60.58;99955.91;5092947;28;20051;-73
2021/04/27 03:51:57;;;;;;;7.28;4.68;;;;;;;2.36;60.75;99943.56;5093154;28;20079;-73
2021/04/27 03:54:24;;;;;;;7.50;4.40;;;;;;;2.38;60.22;99948.78;5093524;28;20485;-73
2021/04/27 03:56:51;;;;;;;6.18;4.30;;;;;;;2.38;60.57;99943.28;5092597;28;20040;-73
2021/04/27 03:59:18;;;;;;;7.13;4.30;;;;;;;2.40;60.21;99952.09;5093405;28;20052;-73
2021/04/27 04:01:45;;;;;;;5.95;4.25;;;;;;;2.39;59.93;99943.03;5092792;28;20477;-73
2021/04/27 04:04:13;;;;;;;5.32;4.07;;;;;;;2.35;60.30;99944.66;5093336;28;20055;-72
2021/04/27 04:06:40;;;;;;;8.68;4.07;;;;;;;2.34;60.21;99950.41;5092813;28;20052;-72
2021/04/27 04:09:09;;;;;;;8.82;4.60;;;;;;;2.34;60.56;99953.16;5108288;28;20048;-72
2021/04/27 04:11:36;;;;;;;8.73;5.57;;;;;;;2.31;60.84;99953.69;5112915;28;20485;-73
2021/04/27 04:14:04;;;;;;;5.10;3.58;;;;;;;2.35;60.78;99950.16;5112933;28;20044;-73
2021/04/27 04:16:31;;;;;;;11.02;5.78;;;;;;;2.34;60.63;99953.16;5112803;28;20468;-73
2021/04/27 04:18:58;;;;;;;7.10;4.55;;;;;;;2.37;60.49;99952.63;5113086;28;20048;-73
2021/04/27 04:21:26;;;;;;;6.60;4.22;;;;;;;2.37;59.66;99955.38;5112792;28;20052;-73
2021/04/27 04:23:53;;;;;;;6.13;4.13;;;;;;;2.39;59.90;99942.16;5102411;28;20048;-73
2021/04/27 04:26:21;;;;;;;6.75;4.32;;;;;;;2.40;59.52;99943.84;5112919;28;20484;-73
2021/04/27 04:28:48;;;;;;;7.28;4.40;;;;;;;2.35;60.29;99952.06;5113575;27;20056;-73
2021/04/27 04:31:15;;;;;;;7.15;4.53;;;;;;;2.39;59.93;99955.91;5114280;28;20064;-73
2021/04/27 04:33:41;;;;;;;8.05;4.65;;;;;;;2.41;59.89;99960.03;5113998;28;20055;-73
2021/04/27 04:36:08;;;;;;;5.57;3.88;;;;;;;2.43;59.95;99960.59;5112878;28;20051;-73
2021/04/27 04:38:36;;;;;;;8.07;4.40;;;;;;;2.51;61.39;99959.22;5110242;28;20472;-73
2021/04/27 04:41:03;;;;;;;7.30;4.30;;;;;;;2.60;60.22;99962.25;5098469;28;20059;-73
2021/04/27 04:43:30;;;;;;;6.88;3.80;;;;;;;2.67;58.93;99956.47;5096972;28;20048;-73
2021/04/27 04:45:58;;;;;;;8.20;4.60;;;;;;;2.67;58.79;99965.56;5097221;28;20408;-72
2021/04/27 04:48:24;;;;;;;7.25;4.38;;;;;;;2.71;58.76;99954.84;5096834;28;20055;-72
2021/04/27 04:50:51;;;;;;;7.53;4.22;;;;;;;2.65;58.82;99962.28;5097258;28;20070;-72
2021/04/27 04:53:19;;;;;;;5.85;3.95;;;;;;;2.68;59.27;99967.22;5096306;28;20059;-74
2021/04/27 04:55:46;;;;;;;7.65;4.40;;;;;;;2.77;58.84;99961.97;5108713;28;20057;-74
2021/04/27 04:58:13;;;;;;;6.35;4.20;;;;;;;2.79;58.69;99960.63;5100212;27;20048;-74
2021/04/27 05:00:41;;;;;;;6.82;4.50;;;;;;;2.80;58.96;99956.78;5095726;28;20481;-73
2021/04/27 05:03:08;;;;;;;8.82;6.05;;;;;;;2.90;58.74;99966.09;5096074;28;20056;-74
2021/04/27 05:05:34;;;;;;;6.93;4.20;;;;;;;2.89;58.65;99967.22;5095705;28;20055;-73
2021/04/27 05:08:08;;;;;;;7.72;4.57;;;;;;;2.90;58.36;99966.94;5095801;28;20048;-73
2021/04/27 05:10:36;;;;;;;6.70;4.53;;;;;;;2.94;58.28;99961.69;5096940;28;20044;-73
2021/04/27 05:13:04;;;;;;;8.38;4.28;;;;;;;2.94;59.42;99961.69;5106762;28;20109;-73
2021/04/27 05:15:31;;;;;;;7.63;4.35;;;;;;;3.04;59.00;99961.69;5113597;28;20400;-73
2021/04/27 05:17:58;;;;;;;6.82;4.15;;;;;;;3.09;59.35;99969.97;5113308;28;20059;-73
2021/04/27 05:20:25;;;;;;;7.85;4.07;;;;;;;3.16;59.15;99959.47;5108323;28;20134;-73
2021/04/27 05:22:52;;;;;;;6.97;4.07;;;;;;;3.23;58.83;99967.44;5092495;28;20468;-73
2021/04/27 05:25:20;;;;;;;5.90;4.28;;;;;;;3.29;59.30;99971.03;5094835;28;20059;-73
2021/04/27 05:27:49;;;;;;;6.53;4.70;;;;;;;3.34;58.44;99971.00;5096033;28;20055;-73
2021/04/27 05:30:18;;;;;;;7.30;4.40;;;;;;;3.40;58.23;99967.13;5092592;28;20048;-73
2021/04/27 05:32:45;;;;;;;5.10;4.20;;;;;;;3.47;59.13;99962.16;5093170;28;20064;-73
2021/04/27 05:35:12;;;;;;;6.80;4.50;;;;;;;3.61;59.02;99963.22;5091985;28;20501;-74
2021/04/27 05:37:39;;;;;;;8.00;4.40;;;;;;;3.70;58.88;99963.47;5094672;28;20052;-74
2021/04/27 05:40:07;;;;;;;5.72;3.92;;;;;;;3.78;58.00;99964.81;5095348;28;20519;-74
2021/04/27 05:42:35;;;;;;;6.75;4.60;;;;;;;3.90;58.04;99961.72;5093336;28;20044;-74
2021/04/27 05:45:02;;;;;;;6.57;4.22;;;;;;;3.98;57.89;99959.19;5091986;28;20488;-73
2021/04/27 05:47:30;;;;;;;6.88;4.88;;;;;;;4.04;58.16;99962.78;5094296;28;20059;-73
2021/04/27 05:49:59;;;;;;;5.82;4.55;;;;;;;4.09;57.72;99961.91;5094896;28;20063;-73
2021/04/27 05:52:26;;;;;;;6.37;4.53;;;;;;;4.19;57.34;99959.09;5095372;28;20059;-73
2021/04/27 05:54:53;;;;;;;6.03;4.03;;;;;;;4.34;56.57;99960.94;5095280;28;20473;-73
2021/04/27 05:57:20;;;;;;;6.82;4.20;;;;;;;4.42;55.99;99957.56;5085788;28;20056;-73
2021/04/27 05:59:46;;;;;;;7.25;4.38;;;;;;;4.55;56.38;99958.88;5074665;28;20530;-73
2021/04/27 06:02:13;;;;;;;7.13;4.10;;;;;;;4.63;56.15;99953.56;5074494;28;20048;-73
2021/04/27 06:04:41;;;;;;;7.75;4.80;;;;;;;4.76;55.75;99957.59;5079404;28;20065;-74
2021/04/27 06:07:08;;;;;;;9.40;4.57;;;;;;;4.88;55.18;99954.47;5101529;28;20503;-74
2021/04/27 06:09:35;;;;;;;10.50;4.80;;;;;;;4.98;54.62;99950.81;5102589;28;20052;-73
2021/04/27 06:12:02;;;;;;;8.35;5.28;;;;;;;5.07;54.01;99954.56;5096194;28;20060;-74
2021/04/27 06:14:29;;;;;;;9.95;5.40;;;;;;;5.28;53.80;99960.72;5100702;28;20062;-74
2021/04/27 06:16:56;;;;;;;12.23;6.97;;;;;;;5.44;53.80;99950.34;5094229;28;20059;-74
2021/04/27 06:19:23;;;;;;;10.48;5.68;;;;;;;5.58;53.34;99956.78;5093802;28;20530;-73
2021/04/27 06:21:50;;;;;;;7.38;4.60;;;;;;;5.75;53.10;99947.22;5083621;28;20382;-73
2021/04/27 06:24:17;;;;;;;9.13;5.13;;;;;;;5.85;52.66;99952.59;5094020;28;20067;-73
2021/04/27 06:26:44;;;;;;;12.20;5.00;;;;;;;6.05;51.93;99952.38;5093606;28;20476;-73
2021/04/27 06:29:11;;;;;;;6.72;4.50;;;;;;;6.20;51.29;99948.59;5094489;28;20067;-73
2021/04/27 06:31:38;;;;;;;11.60;4.10;;;;;;;6.39;51.34;99942.22;5093948;28;20063;-73
2021/04/27 06:34:05;;;;;;;7.28;4.75;;;;;;;6.58;50.97;99943.03;5094643;28;20051;-73
2021/04/27 06:36:36;;;;;;;9.07;4.68;;;;;;;6.76;50.52;99944.16;5093758;28;20047;-73
2021/04/27 06:39:05;;;;;;;5.40;3.55;;;;;;;6.91;49.96;99934.75;5094011;28;20055;-74
2021/04/27 06:41:33;;;;;;;12.73;5.13;;;;;;;7.12;49.76;99935.22;5100710;28;20051;-74
2021/04/27 06:44:01;;;;;;;7.57;3.70;;;;;;;7.25;49.94;99926.09;5115275;28;20059;-74
2021/04/27 06:46:28;;;;;;;9.45;4.50;;;;;;;7.40;50.35;99926.94;5115391;28;20511;-74
2021/04/27 06:48:55;;;;;;;6.95;3.85;;;;;;;7.58;50.30;99934.34;5114512;28;20492;-74
2021/04/27 06:51:22;;;;;;;7.75;3.75;;;;;;;7.75;50.76;99921.81;5112183;27;20052;-74
2021/04/27 06:53:50;;;;;;;10.85;2.72;;;;;;;7.94;44.89;99925.28;5112163;28;20417;-74
2021/04/27 06:56:18;;;;;;;3.65;1.70;;;;;;;8.12;40.08;99924.31;5110601;28;20398;-74
2021/04/27 06:58:45;;;;;;;4.45;1.77;;;;;;;8.39;37.34;99919.03;5090850;28;20058;-75
2021/04/27 07:01:12;;;;;;;4.32;1.90;;;;;;;8.61;33.90;99918.22;5085291;28;20048;-72
2021/04/27 07:03:41;;;;;;;4.63;1.65;;;;;;;8.85;33.65;99912.38;5089770;28;20058;-73
2021/04/27 07:06:08;;;;;;;3.05;2.22;;;;;;;9.07;33.52;99906.81;5094829;28;20059;-73
2021/04/27 07:08:35;;;;;;;7.88;1.80;;;;;;;9.29;33.39;99902.31;5089660;28;20048;-73
2021/04/27 07:11:04;;;;;;;3.47;1.58;;;;;;;9.61;33.13;99911.44;5092539;28;20058;-73
2021/04/27 07:13:32;;;;;;;4.88;1.70;;;;;;;10.20;30.48;99902.75;5093443;28;20377;-73
2021/04/27 07:15:59;;;;;;;2.78;1.70;;;;;;;11.19;29.30;99905.63;5104367;28;20055;-74
2021/04/27 07:18:26;;;;;;;3.03;1.70;;;;;;;12.09;27.23;99896.19;5093066;28;20492;-73
2021/04/27 07:20:53;;;;;;;3.42;1.83;;;;;;;13.20;25.00;99891.06;5093326;28;20477;-74
2021/04/27 07:23:20;;;;;;;3.45;1.52;;;;;;;14.12;23.64;99892.53;5094129;28;20056;-73
2021/04/27 07:25:47;;;;;;;3.05;1.70;;;;;;;15.18;22.88;99893.22;5111724;28;20051;-73
2021/04/27 07:28:14;;;;;;;2.67;1.73;;;;;;;15.89;21.14;99887.00;5082659;28;20055;-73
2021/04/27 07:30:42;;;;;;;4.22;1.90;;;;;;;16.70;20.46;99880.75;5071540;28;20421;-73
2021/04/27 07:33:08;;;;;;;5.10;1.95;;;;;;;17.00;19.59;99872.53;5084332;28;20052;-72
2021/04/27 07:35:35;;;;;;;3.97;2.13;;;;;;;17.74;19.89;99877.84;5091684;28;20049;-73
2021/04/27 07:38:03;;;;;;;4.18;2.10;;;;;;;18.56;18.04;99877.44;5079889;28;20401;-72
2021/04/27 07:40:32;;;;;;;3.47;1.77;;;;;;;19.37;17.61;99878.78;5109204;28;20059;-72
2021/04/27 07:42:59;;;;;;;3.10;1.67;;;;;;;20.14;16.59;99870.53;5094470;28;20052;-72
2021/04/27 07:45:30;;;;;;;3.75;2.15;;;;;;;20.68;16.48;99871.66;5091128;28;20051;-73
2021/04/27 07:47:59;;;;;;;2.88;1.67;;;;;;;21.44;15.12;99859.34;5090860;28;20052;-73
2021/04/27 07:50:28;;;;;;;4.37;1.80;;;;;;;21.97;14.66;99862.56;5092856;28;20055;-73
2021/04/27 07:52:56;;;;;;;;;;;;;;;22.26;14.20;99860.50;5095526;28;20052;-73
2021/04/27 07:55:23;;;;;;;2.75;2.08;;;;;;;23.58;14.10;99852.50;5089974;28;19920;-73
2021/04/27 07:57:50;;;;;;;3.35;1.77;;;;;;;24.57;13.12;99857.66;5079105;28;20063;-73
2021/04/27 08:00:19;;;;;;;3.70;1.90;;;;;;;25.14;12.34;99856.91;5090336;28;20543;-73
2021/04/27 08:02:46;;;;;;;3.30;1.92;;;;;;;25.87;12.00;99846.78;5090207;28;20504;-73
2021/04/27 08:05:16;;;;;;;4.53;1.95;;;;;;;25.15;11.12;99867.06;5108266;28;20407;-75
2021/04/27 08:07:43;;;;;;;4.18;1.85;;;;;;;25.92;11.28;99854.06;5100387;28;20385;-73
2021/04/27 08:10:13;;;;;;;3.55;2.10;;;;;;;26.56;10.98;99846.31;5091063;28;20515;-73
2021/04/27 08:12:41;;;;;;;4.38;2.00;;;;;;;26.97;10.52;99850.78;5091158;28;20063;-73
2021/04/27 08:15:10;;;;;;;4.03;2.00;;;;;;;27.18;9.85;99848.69;5094702;28;20052;-74
2021/04/27 08:17:37;;;;;;;;;;;;;;;27.66;9.96;99835.69;5094423;28;20059;-74
2021/04/27 08:20:06;;;;;;;2.08;1.70;;;;;;;27.48;9.62;99836.94;5095208;28;19931;-74
2021/04/27 08:22:33;;;;;;;4.03;2.35;;;;;;;27.85;9.19;99849.09;5085163;28;20053;-74
2021/04/27 08:25:00;;;;;;;3.80;2.35;;;;;;;28.25;9.34;99843.13;5105180;28;20487;-74
2021/04/27 08:27:27;;;;;;;4.30;2.15;;;;;;;29.34;8.96;99839.50;5106703;28;20395;-74
2021/04/27 08:29:53;;;;;;;2.88;1.80;;;;;;;30.11;8.01;99827.09;5094318;28;20074;-74
2021/04/27 08:32:21;;;;;;;4.25;2.13;;;;;;;30.52;7.23;99836.72;5086388;28;20106;-72
2021/04/27 08:34:48;;;;;;;3.60;1.92;;;;;;;31.14;7.14;99831.03;5095166;28;20067;-72
2021/04/27 08:37:15;;;;;;;3.38;1.85;;;;;;;31.04;6.96;99826.53;5094052;28;20055;-72
2021/04/27 08:39:43;;;;;;;3.35;2.03;;;;;;;31.65;7.17;99824.03;5103842;28;20055;-72
2021/04/27 08:42:11;;;;;;;3.30;1.73;;;;;;;31.82;7.28;99821.69;5097006;27;20055;-72
2021/04/27 08:44:39;;;;;;;5.97;2.17;;;;;;;33.02;6.93;99833.16;5094363;28;20063;-73
2021/04/27 08:47:08;;;;;;;2.58;1.73;;;;;;;34.06;6.07;99818.53;5093556;28;20819;-73
2021/04/27 08:49:35;;;;;;;3.20;1.90;;;;;;;34.04;6.00;99815.31;5094457;28;20052;-73
2021/04/27 08:52:04;;;;;;;3.65;1.90;;;;;;;34.93;5.98;99807.59;5093296;28;20048;-73
2021/04/27 08:54:31;;;;;;;4.03;2.22;;;;;;;36.17;5.20;99808.69;5094038;28;20067;-72
2021/04/27 08:56:59;;;;;;;2.80;1.90;;;;;;;37.07;4.48;99815.41;5094066;28;20055;-73
2021/04/27 08:59:26;;;;;;;3.53;2.10;;;;;;;38.03;3.86;99804.41;5094401;28;20056;-71
2021/04/27 09:01:52;;;;;;;3.55;2.40;;;;;;;38.69;3.75;99810.19;5094266;28;20044;-72
2021/04/27 09:04:38;;;;;;;2.72;2.03;;;;;;;37.84;3.58;99815.69;5096429;28;20110;-72
2021/04/27 09:07:07;;;;;;;4.07;2.20;;;;;;;38.50;3.30;99798.25;5083458;28;20052;-72
2021/04/27 09:09:43;;;;;;;5.32;2.35;;;;;;;38.85;3.40;99802.78;5078695;28;20059;-73
2021/04/27 09:12:12;;;;;;;3.17;2.58;;;;;;;40.05;3.04;99802.91;5078601;28;20472;-72
2021/04/27 09:14:40;;;;;;;3.97;1.98;;;;;;;40.40;2.75;99804.31;5094117;28;20089;-73
2021/04/27 09:17:08;;;;;;;;;;;;;;;41.16;2.62;99796.06;5092814;28;20066;-73
2021/04/27 09:19:39;;;;;;;3.70;2.08;;;;;;;41.87;2.36;99803.06;5093127;28;19931;-72
2021/04/27 09:22:10;;;;;;;2.60;2.00;;;;;;;42.06;2.69;99791.41;5083182;28;20048;-72
2021/04/27 09:24:42;;;;;;;4.80;2.53;;;;;;;41.78;2.72;99784.53;5092320;28;20060;-72
2021/04/27 09:27:11;;;;;;;3.85;2.42;;;;;;;41.31;2.03;99784.78;5093289;28;20374;-72
2021/04/27 09:29:40;;;;;;;3.60;2.10;;;;;;;41.94;2.53;99776.91;5093522;28;20353;-72
2021/04/27 09:32:08;;;;;;;3.00;2.30;;;;;;;42.40;2.06;99785.88;5092917;28;20040;-72
2021/04/27 09:34:36;;;;;;;;;;;;;;;42.72;2.02;99777.13;5093945;28;20048;-72
2021/04/27 09:37:04;;;;;;;2.72;2.20;;;;;;;43.43;1.88;99774.88;5092581;28;20302;-72
2021/04/27 09:39:35;;;;;;;4.28;2.00;;;;;;;43.57;1.21;99779.38;5094081;28;20063;-72
2021/04/27 09:42:08;;;;;;;3.55;2.28;;;;;;;43.95;1.45;99760.75;5088150;28;20517;-72
2021/04/27 09:44:42;;;;;;;3.05;2.10;;;;;;;44.70;1.23;99758.53;5072791;28;20136;-72
2021/04/27 09:47:11;;;;;;;2.92;2.10;;;;;;;44.65;1.06;99759.44;5077214;28;20044;-72
2021/04/27 09:49:40;;;;;;;4.07;2.15;;;;;;;45.18;1.00;99762.88;5092601;28;20051;-72
2021/04/27 09:52:11;;;;;;;3.38;2.22;;;;;;;45.17;1.01;99760.53;5092728;28;20059;-72
2021/04/27 09:55:12;;;;;;;3.17;2.10;;;;;;;45.49;0.56;99753.53;5096416;28;20483;-73
2021/04/27 09:57:41;;;;;;;2.35;2.15;;;;;;;45.45;1.06;99756.06;5027860;28;20433;-73
2021/04/27 10:00:32;;;;;;;2.25;2.05;;;;;;;45.76;0.79;99746.06;5029662;28;20073;-73
2021/04/27 10:03:00;;;;;;;2.97;2.20;;;;;;;46.01;0.59;99748.53;5070978;28;20161;-73
2021/04/27 10:05:27;;;;;;;5.40;2.20;;;;;;;46.10;1.30;99744.28;5110657;28;20055;-73
2021/04/27 10:07:58;;;;;;;3.00;2.20;;;;;;;46.95;0.24;99746.03;5100912;28;20051;-73
2021/04/27 10:10:27;;;;;;;3.67;2.20;;;;;;;46.71;0.54;99738.53;5091917;28;20062;-72
2021/04/27 10:12:56;;;;;;;4.25;2.40;;;;;;;46.57;0.50;99740.09;5091803;28;20052;-72
2021/04/27 10:15:24;;;;;;;3.67;2.35;;;;;;;46.75;0.53;99730.09;5083477;28;20060;-73
2021/04/27 10:17:54;;;;;;;2.47;2.10;;;;;;;46.71;1.29;99731.88;5088257;28;20055;-72
2021/04/27 10:20:21;;;;;;;2.40;2.20;;;;;;;47.12;0.11;99730.69;5092357;28;20044;-72
2021/04/27 10:22:49;;;;;;;3.53;2.23;;;;;;;46.88;0.84;99734.25;5091054;28;20059;-72
2021/04/27 10:25:22;;;;;;;3.45;2.50;;;;;;;47.42;0.25;99726.16;5091931;28;20048;-72
2021/04/27 10:27:57;;;;;;;2.83;2.33;;;;;;;47.55;0.05;99737.75;5081446;28;20402;-72
2021/04/27 10:30:35;;;;;;;3.40;2.33;;;;;;;47.49;0.14;99722.41;5071647;28;20504;-72
2021/04/27 10:33:20;;;;;;;2.40;2.00;;;;;;;47.60;0.61;99715.31;5083968;28;20055;-72
2021/04/27 10:36:06;;;;;;;4.68;2.30;;;;;;;47.63;0.31;99716.28;5091996;28;20404;-72
2021/04/27 10:38:45;;;;;;;3.30;2.33;;;;;;;47.64;0.48;99709.00;5091395;28;20055;-72
2021/04/27 10:41:15;;;;;;;3.13;2.38;;;;;;;47.57;0.07;99707.66;5092025;28;20059;-73
2021/04/27 10:43:45;;;;;;;2.42;2.22;;;;;;;45.96;0.40;99700.22;5092091;28;20048;-72
2021/04/27 10:46:53;;;;;;;2.78;2.10;;;;;;;46.18;0.95;99695.00;5092742;28;20048;-72
2021/04/27 10:49:37;;;;;;;3.15;2.40;;;;;;;45.90;0.92;99684.91;5092728;28;20063;-72
2021/04/27 10:52:06;;;;;;;3.65;2.35;;;;;;;46.00;0.77;99684.34;5091509;28;20040;-73
2021/04/27 10:54:36;;;;;;;4.35;2.30;;;;;;;46.37;0.67;99679.94;5093650;28;20369;-75
2021/04/27 10:57:15;;;;;;;3.05;2.28;;;;;;;46.73;0.69;99676.84;5090254;28;20405;-73
2021/04/27 10:59:56;;;;;;;4.22;2.30;;;;;;;46.86;0.31;99678.06;5071931;28;20058;-73
2021/04/27 11:02:26;;;;;;;3.17;2.13;;;;;;;47.23;0.32;99669.75;5078433;28;20056;-73
2021/04/27 11:04:58;;;;;;;2.67;2.20;;;;;;;47.21;0.00;99672.50;5096332;28;20516;-75
2021/04/27 11:07:38;;;;;;;3.70;2.30;;;;;;;47.10;0.36;99671.53;5090842;28;20063;-75
2021/04/27 11:10:29;;;;;;;4.32;2.33;;;;;;;46.82;0.00;99672.56;5088325;28;20445;-76
2021/04/27 11:12:58;;;;;;;3.85;2.10;;;;;;;46.18;0.56;99659.66;5093603;28;20408;-75
2021/04/27 11:15:28;;;;;;;11.68;2.20;;;;;;;46.76;0.99;99666.03;5088280;28;20056;-74
2021/04/27 11:17:59;;;;;;;3.08;1.95;;;;;;;46.76;0.86;99663.88;5072870;28;20059;-74
2021/04/27 11:21:02;;;;;;;4.78;2.50;;;;;;;46.18;0.48;99653.78;5097259;28;20057;-74
2021/04/27 11:23:48;;;;;;;2.75;2.40;;;;;;;46.16;0.78;99644.75;5095008;28;20437;-74
2021/04/27 11:26:46;;;;;;;2.75;2.20;;;;;;;46.38;0.76;99646.94;5093094;28;20047;-75
2021/04/27 11:29:18;;;;;;;3.58;2.08;;;;;;;45.82;0.68;99642.88;5088946;28;20058;-74
2021/04/27 11:31:57;;;;;;;2.58;2.08;;;;;;;45.85;1.10;99647.59;5093639;28;20473;-77
2021/04/27 11:34:25;;;;;;;5.57;2.00;;;;;;;46.23;1.40;99641.03;5093701;28;20066;-76
2021/04/27 11:36:52;;;;;;;2.30;2.10;;;;;;;46.14;1.47;99633.56;5089510;28;20060;-76
2021/04/27 11:39:22;;;;;;;5.78;2.50;;;;;;;46.26;0.97;99647.91;5086779;28;20047;-76
2021/04/27 11:41:51;;;;;;;2.75;2.28;;;;;;;46.57;1.20;99645.81;5092209;28;20058;-76
2021/04/27 11:44:19;;;;;;;3.05;2.10;;;;;;;46.74;0.84;99637.16;5092838;28;20048;-76
2021/04/27 11:47:03;;;;;;;5.60;2.60;;;;;;;46.52;1.47;99643.84;5089380;28;20060;-76
2021/04/27 11:49:47;;;;;;;4.72;2.85;;;;;;;46.35;1.60;99641.47;5077887;28;20497;-75
2021/04/27 11:52:14;;;;;;;4.70;2.40;;;;;;;46.31;1.39;99635.19;5087573;28;20051;-76
2021/04/27 11:54:44;;;;;;;4.53;2.50;;;;;;;46.48;0.81;99641.28;5072632;28;20485;-76